Time;durP1;ratioP1;P1;durP2;ratioP2;P2;SDS_P1;SDS_P2;PMS_P1;PMS_P2;Temp;Humidity;BMP_temperature;BMP_pressure;BME280_temperature;BME280_humidity;BME280_pressure;Samples;Min_cycle;Max_cycle;Signal;HPM_P1;HPM_P2
2022/01/03 00:01:23;;;;;;;11.75;10.50;;;;;;;;;;4973755;28;20104;-72
2022/01/03 00:03:49;;;;;;;11.13;10.15;;;;;;;;;;4973296;28;20375;-72
2022/01/03 00:06:19;;;;;;;10.52;9.73;;;;;;;;;;4969848;28;20583;-70
2022/01/03 00:08:45;;;;;;;11.65;10.70;;;;;;;;;;4972004;28;20031;-70
2022/01/03 00:11:17;;;;;;;11.15;10.25;;;;;;;;;;4973398;28;20026;-70
2022/01/03 00:13:50;;;;;;;11.20;10.30;;;;;;;;;;4972423;28;20117;-70
2022/01/03 00:16:16;;;;;;;11.23;10.25;;;;;;;;;;4975039;28;20042;-70
2022/01/03 00:18:42;;;;;;;10.55;9.85;;;;;;;;;;4969702;28;20034;-70
2022/01/03 00:21:16;;;;;;;11.45;10.43;;;;;;;;;;4966509;28;20378;-70
2022/01/03 00:23:52;;;;;;;10.45;9.65;;;;;;;;;;4980572;28;20027;-70
2022/01/03 00:26:28;;;;;;;11.48;10.50;;;;;;;;;;4982841;28;20683;-69
2022/01/03 00:29:00;;;;;;;11.60;10.65;;;;;;;;;;4963788;28;20474;-70
2022/01/03 00:31:35;;;;;;;10.98;10.18;;;;;;;;;;4980736;28;20030;-71
2022/01/03 00:34:03;;;;;;;11.50;10.60;;;;;;;;;;4969982;28;20455;-72
2022/01/03 00:36:30;;;;;;;11.73;10.55;;;;;;;;;;4988208;28;20409;-70
2022/01/03 00:38:56;;;;;;;11.45;10.45;;;;;;;;;;4972580;28;20042;-71
2022/01/03 00:41:23;;;;;;;12.38;11.13;;;;;;;;;;4983448;28;20388;-72
2022/01/03 00:43:51;;;;;;;11.07;10.02;;;;;;;;;;4969695;28;20557;-72
2022/01/03 00:46:18;;;;;;;10.88;9.98;;;;;;;;;;4981729;28;20620;-72
2022/01/03 00:48:44;;;;;;;10.55;9.75;;;;;;;;;;4994692;28;20027;-72
2022/01/03 00:51:13;;;;;;;11.30;10.30;;;;;;;;;;4970492;28;20138;-72
2022/01/03 00:53:40;;;;;;;12.13;10.95;;;;;;;;;;4968395;28;20046;-70
2022/01/03 00:56:14;;;;;;;11.48;10.48;;;;;;;;;;4991977;28;20374;-70
2022/01/03 00:59:15;;;;;;;11.25;10.25;;;;;;;;;;4986267;28;20030;-70
2022/01/03 01:01:52;;;;;;;11.77;10.63;;;;;;;;;;4971398;28;20113;-71
2022/01/03 01:04:20;;;;;;;12.10;10.75;;;;;;;;;;4989690;28;20114;-70
2022/01/03 01:06:54;;;;;;;11.13;10.18;;;;;;;;;;4985391;28;20113;-70
2022/01/03 01:09:23;;;;;;;11.25;9.80;;;;;;;;;;4971393;28;20122;-70
2022/01/03 01:11:51;;;;;;;11.27;10.15;;;;;;;;;;4978075;28;20035;-70
2022/01/03 01:14:17;;;;;;;11.18;9.75;;;;;;;;;;4987493;28;20043;-70
2022/01/03 01:16:43;;;;;;;11.45;10.48;;;;;;;;;;4967567;28;20064;-70
2022/01/03 01:19:10;;;;;;;11.50;10.57;;;;;;;;;;4988579;28;20038;-70
2022/01/03 01:21:38;;;;;;;12.02;10.90;;;;;;;;;;4971393;28;20031;-72
2022/01/03 01:24:04;;;;;;;11.18;10.38;;;;;;;;;;4988251;28;20088;-72
2022/01/03 01:29:14;;;;;;;11.48;10.48;;;;;;;;;;4987655;28;20501;-72
2022/01/03 01:31:51;;;;;;;14.52;10.50;;;;;;;;;;4990271;28;20047;-72
2022/01/03 01:34:22;;;;;;;;;;;;;;;;;;4987216;28;20042;-70
2022/01/03 01:36:52;;;;;;;11.23;10.40;;;;;;;;;;4974013;28;19968;-70
2022/01/03 01:39:21;;;;;;;11.73;10.63;;;;;;;;;;4996158;28;20117;-72
2022/01/03 01:41:47;;;;;;;11.18;10.00;;;;;;;;;;4972759;28;20045;-72
2022/01/03 01:44:14;;;;;;;12.50;10.23;;;;;;;;;;4973471;28;20046;-69
2022/01/03 01:46:49;;;;;;;11.05;10.05;;;;;;;;;;4974549;28;20071;-69
2022/01/03 01:49:18;;;;;;;11.00;10.02;;;;;;;;;;4996393;28;20053;-69
2022/01/03 01:51:55;;;;;;;11.40;10.40;;;;;;;;;;4972455;28;20115;-69
2022/01/03 01:54:32;;;;;;;11.35;10.27;;;;;;;;;;4984698;28;20039;-70
2022/01/03 01:57:19;;;;;;;12.98;10.38;;;;;;;;;;4983174;28;20524;-69
2022/01/03 02:00:04;;;;;;;11.50;10.35;;;;;;;;;;5002766;28;20096;-69
2022/01/03 02:03:14;;;;;;;11.18;10.32;;;;;;;;;;4982373;28;20038;-70
2022/01/03 02:05:47;;;;;;;11.25;10.15;;;;;;;;;;4978570;28;20506;-70
2022/01/03 02:08:23;;;;;;;11.23;10.20;;;;;;;;;;4995534;28;20045;-69
2022/01/03 02:10:57;;;;;;;11.40;10.40;;;;;;;;;;4969904;28;20505;-69
2022/01/03 02:13:25;;;;;;;11.43;10.52;;;;;;;;;;4985077;28;20485;-72
2022/01/03 02:16:05;;;;;;;11.55;10.60;;;;;;;;;;4961783;28;20423;-72
2022/01/03 02:18:38;;;;;;;14.90;10.55;;;;;;;;;;4993019;28;20086;-72
2022/01/03 02:21:04;;;;;;;11.05;10.05;;;;;;;;;;4985749;28;20134;-72
2022/01/03 02:23:33;;;;;;;11.25;10.27;;;;;;;;;;4980992;28;20042;-72
2022/01/03 02:25:59;;;;;;;11.50;10.60;;;;;;;;;;4986814;28;20034;-71
2022/01/03 02:28:25;;;;;;;11.48;10.38;;;;;;;;;;4998993;28;20206;-72
2022/01/03 02:30:54;;;;;;;11.18;10.25;;;;;;;;;;4989011;28;20031;-70
2022/01/03 02:33:20;;;;;;;11.18;10.27;;;;;;;;;;4991350;28;20030;-70
2022/01/03 02:35:47;;;;;;;11.55;10.18;;;;;;;;;;4992541;28;20068;-70
2022/01/03 02:38:15;;;;;;;11.15;10.25;;;;;;;;;;4986609;28;20039;-70
2022/01/03 02:40:41;;;;;;;11.75;10.70;;;;;;;;;;4977641;28;20034;-72
2022/01/03 02:43:07;;;;;;;12.30;10.73;;;;;;;;;;4991602;28;20086;-72
2022/01/03 02:45:33;;;;;;;10.90;10.10;;;;;;;;;;4980803;28;20030;-72
2022/01/03 02:48:07;;;;;;;12.52;11.32;;;;;;;;;;4986834;28;20046;-70
2022/01/03 02:50:35;;;;;;;11.50;10.55;;;;;;;;;;4977567;28;20172;-70
2022/01/03 02:53:02;;;;;;;12.15;11.02;;;;;;;;;;4993469;28;20035;-70
2022/01/03 02:55:28;;;;;;;11.73;10.63;;;;;;;;;;4980966;28;20057;-70
2022/01/03 02:57:59;;;;;;;11.90;10.90;;;;;;;;;;4979125;28;20481;-70
2022/01/03 03:00:29;;;;;;;11.95;10.75;;;;;;;;;;5001191;28;20077;-72
2022/01/03 03:02:55;;;;;;;11.40;10.40;;;;;;;;;;4977109;28;20332;-70
2022/01/03 03:05:23;;;;;;;11.93;10.75;;;;;;;;;;4972790;28;20031;-70
2022/01/03 03:07:49;;;;;;;12.32;11.32;;;;;;;;;;4981495;28;20085;-70
2022/01/03 03:10:19;;;;;;;12.20;11.20;;;;;;;;;;4982155;28;20148;-70
2022/01/03 03:12:46;;;;;;;11.63;10.73;;;;;;;;;;4988965;28;20109;-72
2022/01/03 03:15:13;;;;;;;11.05;10.02;;;;;;;;;;4982163;28;20042;-72
2022/01/03 03:17:40;;;;;;;11.60;10.20;;;;;;;;;;4999715;28;20060;-72
2022/01/03 03:20:15;;;;;;;10.95;10.15;;;;;;;;;;4984684;28;20245;-72
2022/01/03 03:22:42;;;;;;;13.30;10.93;;;;;;;;;;4985919;28;20042;-70
2022/01/03 03:25:15;;;;;;;12.00;11.00;;;;;;;;;;4973736;28;20034;-72
2022/01/03 03:27:46;;;;;;;11.32;10.35;;;;;;;;;;4980337;28;20074;-72
2022/01/03 03:30:22;;;;;;;11.20;10.40;;;;;;;;;;4989743;28;20402;-72
2022/01/03 03:32:53;;;;;;;11.15;10.25;;;;;;;;;;4973837;28;20038;-72
2022/01/03 03:35:20;;;;;;;11.98;10.90;;;;;;;;;;4993858;28;20042;-69
2022/01/03 03:37:46;;;;;;;13.48;11.20;;;;;;;;;;4981603;28;20038;-69
2022/01/03 03:40:12;;;;;;;11.90;10.80;;;;;;;;;;4972993;28;20037;-69
2022/01/03 03:42:39;;;;;;;11.88;10.90;;;;;;;;;;4988097;28;20117;-70
2022/01/03 03:45:05;;;;;;;11.35;10.23;;;;;;;;;;4982669;28;20494;-70
2022/01/03 03:47:31;;;;;;;11.32;10.38;;;;;;;;;;5001540;28;20038;-70
2022/01/03 03:49:58;;;;;;;11.45;10.50;;;;;;;;;;4978138;28;20045;-70
2022/01/03 03:52:23;;;;;;;11.40;10.35;;;;;;;;;;4969420;28;20046;-70
2022/01/03 03:54:49;;;;;;;11.90;10.82;;;;;;;;;;4982208;28;20049;-70
2022/01/03 03:57:15;;;;;;;13.18;11.05;;;;;;;;;;4979601;28;20039;-70
2022/01/03 03:59:41;;;;;;;11.63;10.73;;;;;;;;;;4975123;28;20042;-70
2022/01/03 04:02:07;;;;;;;12.02;10.93;;;;;;;;;;4986097;28;20097;-70
2022/01/03 04:04:34;;;;;;;11.45;10.55;;;;;;;;;;4967805;28;20050;-70
2022/01/03 04:07:01;;;;;;;11.48;10.68;;;;;;;;;;4978532;28;20109;-70
2022/01/03 04:09:26;;;;;;;11.63;10.70;;;;;;;;;;4975677;28;20149;-70
2022/01/03 04:11:54;;;;;;;12.13;10.70;;;;;;;;;;4969699;28;20038;-70
2022/01/03 04:14:20;;;;;;;12.40;11.15;;;;;;;;;;4982313;28;20037;-70
2022/01/03 04:16:46;;;;;;;11.55;10.55;;;;;;;;;;4960171;28;20474;-71
2022/01/03 04:19:13;;;;;;;11.90;10.85;;;;;;;;;;4971484;28;20062;-72
2022/01/03 04:21:39;;;;;;;11.85;10.63;;;;;;;;;;4963180;28;21314;-72
2022/01/03 04:24:07;;;;;;;11.82;10.63;;;;;;;;;;5003617;28;20027;-70
2022/01/03 04:26:34;;;;;;;12.25;10.98;;;;;;;;;;4975379;28;20478;-70
2022/01/03 04:29:00;;;;;;;12.60;11.18;;;;;;;;;;4981606;28;20482;-70
2022/01/03 04:31:26;;;;;;;11.70;10.63;;;;;;;;;;4983085;28;20663;-70
2022/01/03 04:33:51;;;;;;;12.65;11.38;;;;;;;;;;4970228;28;20086;-70
2022/01/03 04:36:17;;;;;;;11.60;10.68;;;;;;;;;;4968603;28;20041;-70
2022/01/03 04:38:43;;;;;;;12.40;10.98;;;;;;;;;;4974998;28;20698;-70
2022/01/03 04:41:10;;;;;;;12.23;11.05;;;;;;;;;;4993054;28;20118;-70
2022/01/03 04:43:37;;;;;;;13.18;10.10;;;;;;;;;;4967916;28;20060;-70
2022/01/03 04:46:03;;;;;;;11.45;10.35;;;;;;;;;;4975239;28;20426;-69
2022/01/03 04:48:29;;;;;;;10.27;9.48;;;;;;;;;;4993985;28;20058;-70
2022/01/03 04:50:55;;;;;;;11.45;10.20;;;;;;;;;;4969207;28;20324;-70
2022/01/03 04:53:25;;;;;;;10.80;9.95;;;;;;;;;;4951772;28;20367;-70
2022/01/03 04:55:52;;;;;;;10.98;10.05;;;;;;;;;;4975895;28;20058;-69
2022/01/03 04:58:18;;;;;;;10.68;9.77;;;;;;;;;;4987364;28;20519;-70
2022/01/03 05:00:44;;;;;;;10.80;10.02;;;;;;;;;;4986375;28;20045;-70
2022/01/03 05:03:10;;;;;;;11.68;10.52;;;;;;;;;;4973474;28;20030;-70
2022/01/03 05:05:36;;;;;;;12.25;11.25;;;;;;;;;;4968987;28;20065;-72
2022/01/03 05:08:02;;;;;;;12.10;11.02;;;;;;;;;;4980248;28;20537;-72
2022/01/03 05:10:28;;;;;;;12.10;10.90;;;;;;;;;;4979693;28;20502;-71
2022/01/03 05:12:54;;;;;;;11.95;10.85;;;;;;;;;;4986698;28;20050;-72
2022/01/03 05:15:21;;;;;;;12.27;11.00;;;;;;;;;;4982601;28;20055;-70
2022/01/03 05:17:46;;;;;;;11.68;10.75;;;;;;;;;;4973263;28;20081;-71
2022/01/03 05:20:12;;;;;;;12.48;11.18;;;;;;;;;;4967080;28;20038;-69
2022/01/03 05:22:39;;;;;;;13.02;11.68;;;;;;;;;;4985118;28;20050;-69
2022/01/03 05:25:07;;;;;;;15.43;11.02;;;;;;;;;;4992350;28;20027;-70
2022/01/03 05:27:34;;;;;;;12.02;10.85;;;;;;;;;;4976970;28;20053;-70
2022/01/03 05:30:01;;;;;;;12.98;11.50;;;;;;;;;;4993276;28;20030;-70
2022/01/03 05:32:30;;;;;;;12.57;11.30;;;;;;;;;;4967700;28;20559;-70
2022/01/03 05:34:56;;;;;;;11.57;10.77;;;;;;;;;;4965181;28;20057;-70
2022/01/03 05:37:22;;;;;;;15.07;11.00;;;;;;;;;;4977761;28;20074;-70
2022/01/03 05:39:48;;;;;;;11.75;10.63;;;;;;;;;;4985375;28;20031;-70
2022/01/03 05:42:14;;;;;;;12.20;11.05;;;;;;;;;;4981559;28;20069;-70
2022/01/03 05:44:40;;;;;;;12.38;11.07;;;;;;;;;;4988972;28;20039;-70
2022/01/03 05:47:07;;;;;;;12.55;11.40;;;;;;;;;;5002302;28;20121;-69
2022/01/03 05:49:33;;;;;;;12.10;11.05;;;;;;;;;;4979444;28;20129;-70
2022/01/03 05:51:58;;;;;;;11.95;10.85;;;;;;;;;;4998617;28;20482;-72
2022/01/03 05:54:24;;;;;;;11.77;10.75;;;;;;;;;;4975941;28;20039;-72
2022/01/03 05:56:51;;;;;;;12.13;10.85;;;;;;;;;;4980162;28;20076;-70
2022/01/03 05:59:16;;;;;;;13.10;11.35;;;;;;;;;;4978387;28;20039;-70
2022/01/03 06:01:43;;;;;;;12.15;11.00;;;;;;;;;;4994616;28;20038;-70
2022/01/03 06:04:57;;;;;;;12.27;11.27;;;;;;;;;;4971385;28;20057;-70
2022/01/03 06:07:05;;;;;;;14.15;11.30;;;;;;;;;;4972338;28;20414;-70
2022/01/03 06:09:37;;;;;;;11.88;10.82;;;;;;;;;;4986129;28;20042;-70
2022/01/03 06:12:03;;;;;;;11.50;10.38;;;;;;;;;;4971589;28;20031;-70
2022/01/03 06:14:32;;;;;;;12.95;10.55;;;;;;;;;;4990126;28;20053;-69
2022/01/03 06:16:58;;;;;;;11.23;10.18;;;;;;;;;;4993279;28;20081;-70
2022/01/03 06:19:24;;;;;;;13.10;10.15;;;;;;;;;;4970568;28;20049;-70
2022/01/03 06:21:51;;;;;;;14.43;10.63;;;;;;;;;;4969163;28;20178;-69
2022/01/03 06:24:20;;;;;;;12.27;10.97;;;;;;;;;;5003859;28;20060;-70
2022/01/03 06:26:48;;;;;;;12.40;10.77;;;;;;;;;;4988355;28;20050;-70
2022/01/03 06:29:15;;;;;;;11.23;10.32;;;;;;;;;;4979215;28;20171;-70
2022/01/03 06:31:42;;;;;;;11.30;10.07;;;;;;;;;;4990786;28;20041;-70
2022/01/03 06:34:08;;;;;;;12.77;10.32;;;;;;;;;;4984368;28;20050;-72
2022/01/03 06:36:34;;;;;;;11.70;10.57;;;;;;;;;;4971708;28;20526;-72
2022/01/03 06:39:05;;;;;;;11.85;10.70;;;;;;;;;;4978769;28;20050;-72
2022/01/03 06:41:31;;;;;;;12.00;10.45;;;;;;;;;;4996155;28;20046;-70
2022/01/03 06:43:57;;;;;;;13.38;10.23;;;;;;;;;;4991726;28;20475;-70
2022/01/03 06:46:24;;;;;;;11.80;9.60;;;;;;;;;;4969972;28;20113;-70
2022/01/03 06:48:49;;;;;;;11.63;10.30;;;;;;;;;;4975013;28;20038;-70
2022/01/03 06:51:16;;;;;;;10.95;9.95;;;;;;;;;;4992921;28;20077;-70
2022/01/03 06:53:43;;;;;;;12.25;9.93;;;;;;;;;;5005139;28;20046;-70
2022/01/03 06:56:10;;;;;;;11.88;9.98;;;;;;;;;;5004949;28;20045;-70
2022/01/03 06:58:38;;;;;;;12.88;10.10;;;;;;;;;;4996580;28;20034;-69
2022/01/03 07:01:04;;;;;;;12.13;10.43;;;;;;;;;;4973809;28;20035;-72
2022/01/03 07:03:30;;;;;;;13.05;10.32;;;;;;;;;;4969732;28;20466;-72
2022/01/03 07:05:56;;;;;;;14.55;11.50;;;;;;;;;;4977119;28;20126;-70
2022/01/03 07:08:22;;;;;;;11.80;10.73;;;;;;;;;;4976133;28;20037;-70
2022/01/03 07:10:48;;;;;;;13.35;10.02;;;;;;;;;;4978699;28;20034;-71
2022/01/03 07:13:15;;;;;;;11.77;10.43;;;;;;;;;;4972676;28;20126;-72
2022/01/03 07:19:10;;;;;;;13.20;10.75;;;;;;;;;;4976573;28;20042;-71
2022/01/03 07:21:12;;;;;;;13.95;11.45;;;;;;;;;;4960618;28;20078;-71
2022/01/03 07:23:39;;;;;;;12.52;11.15;;;;;;;;;;4971294;28;20474;-70
2022/01/03 07:26:05;;;;;;;13.25;11.00;;;;;;;;;;4975725;28;20533;-70
2022/01/03 07:28:31;;;;;;;14.52;11.13;;;;;;;;;;4971586;28;20173;-71
2022/01/03 07:30:56;;;;;;;11.50;10.48;;;;;;;;;;4970667;28;20026;-71
2022/01/03 07:33:22;;;;;;;12.18;10.52;;;;;;;;;;4978082;28;20026;-70
2022/01/03 07:35:48;;;;;;;11.90;10.65;;;;;;;;;;4985060;28;20356;-70
2022/01/03 07:38:13;;;;;;;11.93;10.52;;;;;;;;;;4971367;28;20110;-70
2022/01/03 07:40:40;;;;;;;10.77;9.77;;;;;;;;;;4968308;28;20051;-71
2022/01/03 07:43:06;;;;;;;11.18;10.20;;;;;;;;;;4980896;28;20065;-71
2022/01/03 07:45:32;;;;;;;11.93;10.70;;;;;;;;;;4972931;28;20313;-70
2022/01/03 07:47:57;;;;;;;13.45;9.98;;;;;;;;;;4979459;28;20216;-70
2022/01/03 07:50:23;;;;;;;11.93;10.23;;;;;;;;;;4973944;28;20042;-72
2022/01/03 07:52:49;;;;;;;10.88;9.93;;;;;;;;;;4977449;28;20060;-71
2022/01/03 07:55:15;;;;;;;11.05;9.82;;;;;;;;;;4976729;28;20499;-71
2022/01/03 07:57:41;;;;;;;11.68;9.23;;;;;;;;;;4973477;28;20031;-71
2022/01/03 08:00:10;;;;;;;11.40;9.60;;;;;;;;;;4970220;28;20491;-71
2022/01/03 08:02:40;;;;;;;12.60;9.73;;;;;;;;;;4977459;28;20034;-70
2022/01/03 08:05:08;;;;;;;11.45;10.30;;;;;;;;;;4972238;28;20117;-70
2022/01/03 08:07:35;;;;;;;10.82;9.82;;;;;;;;;;4972816;28;20042;-71
2022/01/03 08:10:04;;;;;;;10.80;9.25;;;;;;;;;;4972819;28;20038;-72
2022/01/03 08:12:29;;;;;;;11.30;9.60;;;;;;;;;;4977722;28;20030;-72
2022/01/03 08:14:55;;;;;;;11.40;9.13;;;;;;;;;;4970842;28;20408;-71
2022/01/03 08:17:21;;;;;;;10.10;9.10;;;;;;;;;;4971748;28;20031;-72
2022/01/03 08:19:47;;;;;;;15.65;9.32;;;;;;;;;;4979852;28;20026;-70
2022/01/03 08:22:12;;;;;;;13.85;10.00;;;;;;;;;;4981031;28;20034;-74
2022/01/03 08:24:38;;;;;;;13.45;9.60;;;;;;;;;;4975589;28;20049;-70
2022/01/03 08:27:04;;;;;;;12.63;10.00;;;;;;;;;;4968997;28;20423;-69
2022/01/03 08:29:29;;;;;;;12.85;9.40;;;;;;;;;;4977855;28;20125;-70
2022/01/03 08:31:55;;;;;;;11.05;8.70;;;;;;;;;;4973127;28;20034;-71
2022/01/03 08:34:21;;;;;;;13.38;9.20;;;;;;;;;;4972666;28;20398;-72
2022/01/03 08:36:46;;;;;;;10.77;9.77;;;;;;;;;;4973981;28;20096;-72
2022/01/03 08:39:12;;;;;;;14.15;10.32;;;;;;;;;;4978810;28;20066;-73
2022/01/03 08:41:38;;;;;;;10.20;9.40;;;;;;;;;;4971836;28;20489;-71
2022/01/03 08:44:04;;;;;;;10.40;9.50;;;;;;;;;;4973028;28;20366;-72
2022/01/03 08:46:29;;;;;;;11.15;9.57;;;;;;;;;;4979166;28;20229;-71
2022/01/03 08:48:56;;;;;;;12.20;9.98;;;;;;;;;;4968987;28;20406;-72
2022/01/03 08:51:21;;;;;;;11.63;10.52;;;;;;;;;;4976425;28;20034;-73
2022/01/03 08:53:47;;;;;;;10.75;9.73;;;;;;;;;;4979551;28;20034;-73
2022/01/03 08:56:13;;;;;;;12.43;9.90;;;;;;;;;;4990677;28;20113;-73
2022/01/03 08:58:38;;;;;;;13.52;10.40;;;;;;;;;;4978463;28;20046;-73
2022/01/03 09:01:04;;;;;;;13.77;10.38;;;;;;;;;;4977943;28;20488;-73
2022/01/03 09:03:30;;;;;;;12.70;9.52;;;;;;;;;;4987991;28;20077;-73
2022/01/03 09:05:56;;;;;;;12.13;9.80;;;;;;;;;;4970753;28;20034;-72
2022/01/03 09:08:23;;;;;;;11.68;10.48;;;;;;;;;;4979769;28;20087;-72
2022/01/03 09:10:50;;;;;;;11.60;10.50;;;;;;;;;;4969764;28;20042;-72
2022/01/03 09:13:17;;;;;;;11.52;10.52;;;;;;;;;;4968296;28;20504;-72
2022/01/03 09:15:46;;;;;;;11.27;10.10;;;;;;;;;;4967620;28;20111;-72
2022/01/03 09:18:12;;;;;;;11.52;10.40;;;;;;;;;;4976460;28;20030;-72
2022/01/03 09:20:38;;;;;;;11.73;10.50;;;;;;;;;;4970994;28;20031;-72
2022/01/03 09:23:15;;;;;;;11.52;10.43;;;;;;;;;;4973731;28;20034;-72
2022/01/03 09:30:53;;;;;;;12.25;9.68;;;;;;;;;;4968135;28;20045;-70
2022/01/03 09:33:19;;;;;;;10.55;9.70;;;;;;;;;;4971066;28;20697;-70
2022/01/03 09:35:45;;;;;;;15.82;9.50;;;;;;;;;;4970770;28;20031;-71
2022/01/03 09:38:11;;;;;;;11.25;10.10;;;;;;;;;;4963188;28;20034;-72
2022/01/03 09:40:41;;;;;;;10.05;9.25;;;;;;;;;;4973608;28;20045;-71
2022/01/03 09:43:09;;;;;;;13.23;9.45;;;;;;;;;;4976626;28;20540;-71
2022/01/03 09:45:37;;;;;;;13.35;9.30;;;;;;;;;;4978242;28;20039;-72
2022/01/03 09:48:04;;;;;;;9.35;8.43;;;;;;;;;;4963459;28;20145;-72
2022/01/03 09:50:33;;;;;;;11.77;8.68;;;;;;;;;;4981148;28;20034;-71
2022/01/03 09:53:01;;;;;;;;;;;;;;;;;;4979733;28;20088;-71
2022/01/03 09:55:27;;;;;;;9.77;8.77;;;;;;;;;;4971399;28;19918;-72
2022/01/03 09:57:55;;;;;;;11.93;8.95;;;;;;;;;;4962043;28;20540;-72
2022/01/03 10:00:24;;;;;;;11.05;9.10;;;;;;;;;;4979968;28;20235;-72
2022/01/03 10:02:51;;;;;;;10.85;9.50;;;;;;;;;;4972774;28;20105;-72
2022/01/03 10:05:18;;;;;;;11.98;9.23;;;;;;;;;;4965608;28;20035;-71
2022/01/03 10:07:43;;;;;;;11.75;9.48;;;;;;;;;;4972029;28;20041;-71
2022/01/03 10:10:10;;;;;;;10.77;8.90;;;;;;;;;;4984526;28;20046;-72
2022/01/03 10:12:37;;;;;;;9.50;8.65;;;;;;;;;;4970250;28;20045;-72
2022/01/03 10:15:05;;;;;;;10.40;9.30;;;;;;;;;;4977967;28;20046;-72
2022/01/03 10:17:35;;;;;;;11.97;9.50;;;;;;;;;;4990508;28;20070;-71
2022/01/03 10:20:04;;;;;;;10.38;9.23;;;;;;;;;;4980001;28;20290;-70
2022/01/03 10:22:32;;;;;;;10.73;9.48;;;;;;;;;;4964796;28;20049;-70
2022/01/03 10:25:02;;;;;;;10.45;9.43;;;;;;;;;;4973299;28;20038;-70
2022/01/03 10:27:47;;;;;;;10.40;9.35;;;;;;;;;;5008383;28;20325;-70
2022/01/03 10:30:13;;;;;;;10.48;9.57;;;;;;;;;;4998831;28;20074;-70
2022/01/03 10:32:40;;;;;;;12.63;9.65;;;;;;;;;;4985059;28;21030;-70
2022/01/03 10:35:17;;;;;;;10.07;9.07;;;;;;;;;;4979170;28;20038;-70
2022/01/03 10:37:44;;;;;;;11.63;10.02;;;;;;;;;;4997228;28;20035;-70
2022/01/03 10:40:31;;;;;;;10.05;9.30;;;;;;;;;;4983199;28;20069;-70
2022/01/03 10:43:33;;;;;;;10.45;9.63;;;;;;;;;;4978095;28;20137;-70
2022/01/03 10:45:59;;;;;;;10.40;9.50;;;;;;;;;;4980545;28;20046;-70
2022/01/03 10:48:31;;;;;;;10.52;9.57;;;;;;;;;;4964583;28;20065;-70
2022/01/03 10:50:57;;;;;;;11.70;9.68;;;;;;;;;;4952404;28;20042;-70
2022/01/03 10:53:39;;;;;;;12.15;9.15;;;;;;;;;;4966363;28;20042;-69
2022/01/03 10:56:38;;;;;;;10.02;9.10;;;;;;;;;;4969333;28;20562;-70
2022/01/03 10:59:18;;;;;;;10.05;9.15;;;;;;;;;;4971183;28;20046;-70
2022/01/03 11:01:52;;;;;;;9.68;8.77;;;;;;;;;;4982168;28;20517;-70
2022/01/03 11:04:52;;;;;;;14.65;9.50;;;;;;;;;;4973821;28;20042;-70
2022/01/03 11:13:20;;;;;;;10.63;9.38;;;;;;;;;;4972299;28;20051;-70
2022/01/03 11:15:58;;;;;;;10.38;9.38;;;;;;;;;;4968453;28;20054;-70
2022/01/03 11:18:33;;;;;;;9.52;8.70;;;;;;;;;;4967835;28;20105;-70
2022/01/03 11:21:04;;;;;;;9.45;8.65;;;;;;;;;;4970452;28;20526;-70
2022/01/03 11:23:30;;;;;;;9.68;8.93;;;;;;;;;;4968093;28;20073;-70
2022/01/03 11:25:56;;;;;;;9.77;8.93;;;;;;;;;;4975865;28;20058;-70
2022/01/03 11:28:29;;;;;;;10.88;9.02;;;;;;;;;;4975961;28;20026;-70
2022/01/03 11:30:57;;;;;;;9.80;8.90;;;;;;;;;;4974577;28;20154;-70
2022/01/03 11:33:25;;;;;;;10.73;9.57;;;;;;;;;;4967274;28;20414;-70
2022/01/03 11:35:52;;;;;;;10.32;8.95;;;;;;;;;;4976621;28;21312;-70
2022/01/03 11:38:23;;;;;;;12.80;9.63;;;;;;;;;;4972380;28;20096;-72
2022/01/03 11:40:49;;;;;;;11.82;9.20;;;;;;;;;;4973479;28;20030;-70
2022/01/03 11:43:16;;;;;;;10.65;9.35;;;;;;;;;;4972199;28;20141;-70
2022/01/03 11:45:42;;;;;;;10.50;8.38;;;;;;;;;;4972666;28;20130;-70
2022/01/03 11:48:08;;;;;;;12.00;9.63;;;;;;;;;;4969299;28;20395;-70
2022/01/03 11:50:37;;;;;;;9.73;8.73;;;;;;;;;;4968406;28;20034;-70
2022/01/03 11:53:04;;;;;;;12.35;9.30;;;;;;;;;;4970047;28;20066;-70
2022/01/03 11:55:30;;;;;;;8.85;7.95;;;;;;;;;;4968937;28;20035;-70
2022/01/03 12:06:00;;;;;;;16.08;9.45;;;;;;;;;;4971087;28;20119;-70
2022/01/03 12:08:31;;;;;;;11.38;9.05;;;;;;;;;;4973368;28;20433;-70
2022/01/03 12:11:00;;;;;;;11.40;9.30;;;;;;;;;;4970722;28;20030;-70
2022/01/03 12:13:48;;;;;;;9.30;8.43;;;;;;;;;;4970922;28;20043;-70
2022/01/03 12:16:14;;;;;;;10.18;9.20;;;;;;;;;;4964779;28;20039;-70
2022/01/03 12:18:57;;;;;;;10.80;9.43;;;;;;;;;;4968661;28;20456;-70
2022/01/03 12:21:48;;;;;;;10.15;9.15;;;;;;;;;;4979969;28;20030;-70
2022/01/03 12:24:28;;;;;;;10.18;9.18;;;;;;;;;;4984900;28;20030;-70
2022/01/03 12:27:09;;;;;;;9.57;8.75;;;;;;;;;;4965993;28;20049;-70
2022/01/03 12:29:53;;;;;;;11.02;8.50;;;;;;;;;;4982917;28;20371;-70
2022/01/03 12:32:26;;;;;;;9.35;8.52;;;;;;;;;;4970727;28;20395;-72
2022/01/03 12:35:07;;;;;;;11.63;8.70;;;;;;;;;;4973743;28;20043;-70
2022/01/03 12:37:35;;;;;;;9.68;8.77;;;;;;;;;;4964254;28;20030;-71
2022/01/03 12:40:03;;;;;;;10.50;9.40;;;;;;;;;;4969896;28;20070;-70
2022/01/03 12:42:53;;;;;;;11.88;9.40;;;;;;;;;;4974434;28;20238;-70
2022/01/03 12:45:32;;;;;;;9.93;9.02;;;;;;;;;;4987005;28;20489;-71
2022/01/03 12:48:15;;;;;;;10.23;9.23;;;;;;;;;;4982184;28;20034;-71
2022/01/03 12:50:52;;;;;;;11.60;9.48;;;;;;;;;;4967577;28;20039;-71
2022/01/03 12:53:27;;;;;;;10.40;9.10;;;;;;;;;;4981452;28;20532;-71
2022/01/03 12:56:05;;;;;;;10.07;9.07;;;;;;;;;;4976290;28;20041;-72
2022/01/03 12:58:31;;;;;;;10.75;9.35;;;;;;;;;;4970379;28;20121;-72
2022/01/03 13:00:59;;;;;;;9.45;8.65;;;;;;;;;;4970345;28;20198;-72
2022/01/03 13:03:26;;;;;;;11.10;10.10;;;;;;;;;;4967263;28;20039;-72
2022/01/03 13:06:13;;;;;;;10.07;9.07;;;;;;;;;;4978750;28;20038;-72
2022/01/03 13:08:48;;;;;;;10.55;9.30;;;;;;;;;;4973936;28;20045;-72
2022/01/03 13:11:14;;;;;;;10.15;9.05;;;;;;;;;;4981065;28;20517;-72
2022/01/03 13:13:42;;;;;;;10.18;9.13;;;;;;;;;;4971854;28;20370;-72
2022/01/03 13:16:29;;;;;;;10.48;9.45;;;;;;;;;;4968728;28;20035;-71
2022/01/03 13:18:55;;;;;;;10.65;9.77;;;;;;;;;;4971648;28;20074;-72
2022/01/03 13:21:24;;;;;;;10.70;9.75;;;;;;;;;;4974373;28;20046;-71
2022/01/03 13:24:16;;;;;;;11.20;10.23;;;;;;;;;;4971709;28;20489;-72
2022/01/03 13:26:58;;;;;;;14.38;9.70;;;;;;;;;;4966816;28;20046;-71
2022/01/03 13:29:29;;;;;;;10.60;9.65;;;;;;;;;;4976489;28;20535;-72
2022/01/03 13:31:55;;;;;;;11.35;9.98;;;;;;;;;;4976591;28;20054;-71
2022/01/03 13:34:23;;;;;;;10.93;9.90;;;;;;;;;;4970529;28;20042;-71
2022/01/03 13:36:50;;;;;;;9.98;9.05;;;;;;;;;;4974340;28;20047;-72
2022/01/03 13:39:16;;;;;;;12.13;9.82;;;;;;;;;;4980501;28;20573;-71
2022/01/03 13:41:47;;;;;;;10.82;9.82;;;;;;;;;;4978069;28;20126;-71
2022/01/03 13:44:24;;;;;;;10.68;9.77;;;;;;;;;;4973089;28;20049;-71
2022/01/03 13:49:43;;;;;;;10.23;9.40;;;;;;;;;;4976347;28;20046;-72
2022/01/03 13:52:09;;;;;;;10.52;9.50;;;;;;;;;;4972944;28;20521;-71
2022/01/03 13:54:35;;;;;;;10.32;9.50;;;;;;;;;;4970288;28;20533;-71
2022/01/03 13:57:03;;;;;;;11.05;9.65;;;;;;;;;;4976523;28;20081;-72
2022/01/03 13:59:33;;;;;;;10.55;9.75;;;;;;;;;;4994106;28;20066;-71
2022/01/03 14:02:04;;;;;;;11.10;10.20;;;;;;;;;;4972826;28;20306;-72
2022/01/03 14:04:32;;;;;;;11.02;10.02;;;;;;;;;;4964170;28;20355;-71
2022/01/03 14:07:13;;;;;;;10.40;9.40;;;;;;;;;;4969914;28;20046;-71
2022/01/03 14:09:59;;;;;;;10.60;9.52;;;;;;;;;;4970824;28;20129;-71
2022/01/03 14:12:27;;;;;;;11.38;10.40;;;;;;;;;;4969295;28;20141;-72
2022/01/03 14:14:55;;;;;;;10.88;9.98;;;;;;;;;;4979066;28;20073;-72
2022/01/03 14:17:22;;;;;;;12.23;11.05;;;;;;;;;;4976363;28;20038;-71
2022/01/03 14:19:58;;;;;;;11.82;10.73;;;;;;;;;;4969751;28;20433;-71
2022/01/03 14:22:31;;;;;;;11.70;10.52;;;;;;;;;;4975730;28;20054;-71
2022/01/03 14:25:05;;;;;;;11.35;10.15;;;;;;;;;;4979311;28;20434;-71
2022/01/03 14:27:30;;;;;;;11.18;10.13;;;;;;;;;;4975418;28;20042;-71
2022/01/03 14:30:11;;;;;;;11.48;10.52;;;;;;;;;;4977197;28;20044;-71
2022/01/03 14:32:39;;;;;;;10.98;10.13;;;;;;;;;;4976988;28;20503;-71
2022/01/03 14:35:05;;;;;;;10.65;9.90;;;;;;;;;;4978322;28;20034;-71
2022/01/03 14:37:32;;;;;;;12.30;9.90;;;;;;;;;;4980716;28;20116;-71
2022/01/03 14:39:59;;;;;;;12.48;9.70;;;;;;;;;;4968609;28;20030;-71
2022/01/03 14:42:31;;;;;;;10.40;9.43;;;;;;;;;;4967050;28;20034;-71
2022/01/03 14:45:08;;;;;;;10.90;9.93;;;;;;;;;;4962217;28;20030;-71
2022/01/03 14:47:34;;;;;;;10.15;9.30;;;;;;;;;;4972587;28;20060;-72
2022/01/03 14:50:02;;;;;;;10.63;9.73;;;;;;;;;;4969160;28;20501;-71
2022/01/03 14:52:39;;;;;;;10.63;9.82;;;;;;;;;;4983332;28;20626;-71
2022/01/03 14:55:08;;;;;;;11.10;9.80;;;;;;;;;;4979133;28;20035;-71
2022/01/03 14:57:41;;;;;;;;;;;;;;;;;;4972291;28;20525;-71
2022/01/03 15:00:07;;;;;;;11.07;10.27;;;;;;;;;;4985576;28;19921;-71
2022/01/03 15:02:33;;;;;;;11.00;9.88;;;;;;;;;;4979191;28;20468;-71
2022/01/03 15:05:03;;;;;;;10.40;9.60;;;;;;;;;;4974796;28;20070;-71